Pagrindinis puslapis
METAR-TAF:

METAR-TAF

Oro uostai :

Iliamna, Aliaska, Jungtinės Amerikos Valstijos

platuma: 59-45N, ilguma: 154-54W, Aukštis: 57 m

Dabartinis oras

Ataskaita buvo paskelbta 40 minutes, ne 03:53 UTC
Vėjas 14 kt iš Vakarų/Šiaurės Vakarų su gūsio iki 26 kt
Temperatūra 8°C
Drėgmė 76%
Slėgis 993 hPa
Matomumas: 16.1 km
Apsiniaukę ne aukštis 6000 ft

METAR: PAIL 210353Z 30014G26KT 10SM OVC060 08/04 A2931 RMK AO2 PK WND 30028/0303 SLP927 T00780039

Laikas: 20:33 (04:33 UTC)

Prognozė

Ataskaita buvo paskelbta 3 valandos ir 36 minutes, ne 00:57 UTC
Prognozė galioja nuo 21 metu 01 UTC su 21 metu 24 UTC
Vėjas 14 kt iš Vakarų/Šiaurės Vakarų su gūsio iki 22 kt
Matomumas: 10 km
Su prošvaistėmis ne aukštis 5000 ft

TAF: PAIL 210057Z 2101/2124 30014G22KT P6SM BKN050

Orai ataskaitas ir orų prognozės (METAR, TAF).

turimą stotys yra geltonos ir raudonos taškus žemėlapyje.

Perkelti pele per norėdami pamatyti stoties vardą.

Tada spustelėkite, norėdami matyti oro stebėjimo ir prognozės.

Norėdami pakeisti žemėlapį: spustelėkite ant žalios mygtukų su juodo kryžiaus žemyn,; žalią mygtuką su brūkšneliu, jei norite nutolinti; arba žalių rodyklių gretimoms žemėlapius.


METAR-TAF: